createdAt,value
2023-05-23T00:01:55.122Z,67.95
2023-05-23T00:04:27.424Z,68.00
2023-05-23T00:06:56.955Z,68.04
2023-05-23T00:09:23.916Z,68.19
2023-05-23T00:11:50.715Z,68.29
2023-05-23T00:14:17.881Z,68.37
2023-05-23T00:16:46.493Z,67.52
2023-05-23T00:19:17.188Z,67.36
2023-05-23T00:21:48.328Z,67.18
2023-05-23T00:24:19.100Z,67.25
2023-05-23T00:26:48.868Z,67.61
2023-05-23T00:29:19.681Z,68.07
2023-05-23T00:31:47.352Z,67.97
2023-05-23T00:34:18.271Z,68.34
2023-05-23T00:36:50.546Z,68.50
2023-05-23T00:39:19.972Z,68.11
2023-05-23T00:41:52.945Z,67.47
2023-05-23T00:44:28.388Z,67.15
2023-05-23T00:46:56.658Z,67.23
2023-05-23T00:49:24.104Z,67.10
2023-05-23T00:51:52.188Z,67.66
2023-05-23T00:54:23.303Z,67.46
2023-05-23T00:56:50.303Z,67.24
2023-05-23T00:59:17.612Z,67.04
2023-05-23T01:01:47.541Z,67.25
2023-05-23T01:04:16.994Z,67.15
2023-05-23T01:06:49.512Z,67.33
2023-05-23T01:09:20.884Z,66.72
2023-05-23T01:12:03.059Z,67.23
2023-05-23T01:15:08.788Z,66.35
2023-05-23T01:17:46.054Z,66.17
2023-05-23T01:20:18.168Z,66.49
2023-05-23T01:22:57.285Z,67.08
2023-05-23T01:25:26.444Z,67.80
2023-05-23T01:27:57.356Z,67.75
2023-05-23T01:30:26.604Z,67.23
2023-05-23T01:32:57.704Z,67.01
2023-05-23T01:35:28.763Z,67.15
2023-05-23T01:37:56.286Z,67.18
2023-05-23T01:40:29.156Z,66.82
2023-05-23T01:42:59.664Z,67.37
2023-05-23T01:45:29.765Z,67.23
2023-05-23T01:47:57.429Z,67.46
2023-05-23T01:50:26.131Z,67.57
2023-05-23T01:52:56.159Z,67.88
2023-05-23T01:55:26.554Z,68.11
2023-05-23T01:57:57.314Z,68.20
2023-05-23T02:00:26.508Z,68.47
2023-05-23T02:02:55.684Z,68.96
2023-05-23T02:05:25.190Z,68.54
2023-05-23T02:07:52.132Z,68.95
2023-05-23T02:10:21.637Z,69.29
2023-05-23T02:12:51.175Z,68.82
2023-05-23T02:15:20.306Z,68.63
2023-05-23T02:17:52.511Z,69.17
2023-05-23T02:20:26.846Z,68.52
2023-05-23T02:22:58.477Z,69.10
2023-05-23T02:25:25.584Z,68.65
2023-05-23T02:27:54.943Z,69.19
2023-05-23T02:30:22.002Z,69.77
2023-05-23T02:32:50.038Z,69.81
2023-05-23T02:35:19.278Z,69.45
2023-05-23T02:37:50.571Z,69.87
2023-05-23T02:40:22.156Z,69.27
2023-05-23T02:42:48.999Z,69.64
2023-05-23T02:45:16.494Z,69.58
2023-05-23T02:47:49.688Z,69.68
2023-05-23T02:50:16.696Z,70.05
2023-05-23T02:52:46.122Z,69.99
2023-05-23T02:55:13.054Z,70.04
2023-05-23T03:00:25.099Z,70.03
2023-05-23T03:02:57.557Z,69.74
2023-05-23T03:05:24.201Z,70.50
2023-05-23T03:07:55.542Z,70.15
2023-05-23T03:10:24.866Z,70.15
2023-05-23T03:12:51.587Z,70.54
2023-05-23T03:15:36.452Z,70.28
2023-05-23T03:18:03.755Z,69.96
2023-05-23T03:20:31.690Z,70.39
2023-05-23T03:23:03.913Z,69.90
2023-05-23T03:25:33.052Z,70.02
2023-05-23T03:28:02.294Z,70.42
2023-05-23T03:30:32.057Z,70.31
2023-05-23T03:32:58.917Z,70.25
2023-05-23T03:35:34.038Z,70.33
2023-05-23T03:38:06.241Z,70.22
2023-05-23T03:40:33.173Z,70.55
2023-05-23T03:43:06.699Z,70.89
2023-05-23T03:45:36.437Z,70.99
2023-05-23T03:48:10.975Z,70.68
2023-05-23T03:50:40.087Z,70.85
2023-05-23T03:53:07.448Z,70.58
2023-05-23T03:55:38.946Z,70.27
2023-05-23T03:58:08.489Z,70.06
2023-05-23T04:00:35.229Z,70.26
2023-05-23T04:03:05.103Z,70.22
2023-05-23T04:05:46.254Z,70.11
2023-05-23T04:08:16.028Z,70.30
2023-05-23T04:10:43.006Z,70.35
2023-05-23T04:13:12.417Z,70.39
2023-05-23T04:15:43.429Z,70.09
2023-05-23T04:18:17.753Z,70.65
2023-05-23T04:20:45.100Z,70.73
2023-05-23T04:23:12.245Z,70.57
2023-05-23T04:25:48.437Z,70.30
2023-05-23T04:28:23.564Z,70.37
2023-05-23T04:30:50.330Z,70.59
2023-05-23T04:33:22.051Z,69.91
2023-05-23T04:35:53.807Z,69.95
2023-05-23T04:38:23.288Z,69.19
2023-05-23T04:40:52.736Z,68.64
2023-05-23T04:43:44.872Z,68.55
2023-05-23T04:46:35.505Z,68.71
2023-05-23T04:49:28.741Z,68.37
2023-05-23T04:51:56.104Z,68.15
2023-05-23T04:54:31.733Z,68.54
2023-05-23T04:57:08.391Z,69.22
2023-05-23T04:59:52.618Z,68.88
2023-05-23T05:02:27.630Z,68.99
2023-05-23T05:04:54.802Z,68.93
2023-05-23T05:07:22.345Z,69.10
2023-05-23T05:09:53.178Z,68.45
2023-05-23T05:12:25.997Z,68.41
2023-05-23T05:14:52.854Z,68.27
2023-05-23T05:17:19.964Z,67.98
2023-05-23T05:20:01.585Z,67.53
2023-05-23T05:22:36.380Z,67.41
2023-05-23T05:25:15.780Z,67.29
2023-05-23T05:27:43.298Z,67.29
2023-05-23T05:30:14.716Z,67.09
2023-05-23T05:32:50.080Z,65.96
2023-05-23T05:35:19.614Z,66.43
2023-05-23T05:37:49.177Z,66.46
2023-05-23T05:40:18.302Z,66.27
2023-05-23T05:42:45.677Z,66.25
2023-05-23T05:45:12.563Z,66.33
2023-05-23T05:47:58.460Z,66.29
2023-05-23T05:50:34.282Z,66.53
2023-05-23T05:53:01.391Z,65.79
2023-05-23T05:55:29.694Z,65.60
2023-05-23T05:57:56.903Z,64.79
2023-05-23T06:00:29.473Z,64.75
2023-05-23T06:02:57.745Z,64.64
2023-05-23T06:05:39.837Z,64.41
2023-05-23T06:08:09.123Z,63.94
2023-05-23T06:10:41.788Z,64.06
2023-05-23T06:13:11.250Z,63.40
2023-05-23T06:15:42.647Z,63.29
2023-05-23T06:18:09.822Z,62.86
2023-05-23T06:20:36.814Z,62.56
2023-05-23T06:23:14.323Z,62.89
2023-05-23T06:25:50.438Z,62.41
2023-05-23T06:28:26.366Z,62.46
2023-05-23T06:31:18.724Z,61.81
2023-05-23T06:33:45.673Z,61.75
2023-05-23T06:36:14.819Z,61.43
2023-05-23T06:38:41.859Z,61.33
2023-05-23T06:41:10.559Z,61.34
2023-05-23T06:43:37.787Z,60.62
2023-05-23T06:46:25.215Z,60.66
2023-05-23T06:49:06.938Z,60.89
2023-05-23T06:51:42.034Z,60.55
2023-05-23T06:54:13.803Z,60.57
2023-05-23T06:56:41.399Z,61.03
2023-05-23T06:59:08.261Z,60.48
2023-05-23T07:01:37.466Z,60.77
2023-05-23T07:04:06.763Z,60.68
2023-05-23T07:06:36.469Z,60.21
2023-05-23T07:09:07.512Z,60.40
2023-05-23T07:11:35.653Z,59.87
2023-05-23T07:14:02.594Z,59.92
2023-05-23T07:16:39.646Z,59.72
2023-05-23T07:19:08.051Z,59.71
2023-05-23T07:21:41.423Z,59.49
2023-05-23T07:24:17.159Z,59.09
2023-05-23T07:27:03.807Z,58.94
2023-05-23T07:29:32.294Z,58.15
2023-05-23T07:32:03.823Z,58.00
2023-05-23T07:34:38.194Z,57.49
2023-05-23T07:37:07.741Z,57.55
2023-05-23T07:39:44.834Z,57.46
2023-05-23T07:42:16.221Z,56.16
2023-05-23T07:44:45.643Z,55.53
2023-05-23T07:47:17.469Z,55.59
2023-05-23T07:49:45.268Z,55.29
2023-05-23T07:52:12.132Z,55.01
2023-05-23T07:54:42.050Z,54.81
2023-05-23T07:57:16.951Z,54.45
2023-05-23T07:59:47.328Z,54.51
2023-05-23T08:02:18.026Z,53.69
2023-05-23T08:04:46.782Z,53.40
2023-05-23T08:07:16.269Z,53.13
2023-05-23T08:09:50.177Z,52.58
2023-05-23T08:12:19.833Z,52.76
2023-05-23T08:14:53.050Z,52.43
2023-05-23T08:17:30.802Z,52.18
2023-05-23T08:20:02.478Z,50.20
2023-05-23T08:22:30.955Z,51.24
2023-05-23T08:24:58.239Z,50.67
2023-05-23T08:27:27.008Z,50.66
2023-05-23T08:29:58.250Z,49.65
2023-05-23T08:32:25.203Z,50.44
2023-05-23T08:34:52.442Z,50.40
2023-05-23T08:37:19.329Z,50.90
2023-05-23T08:39:52.324Z,48.28
2023-05-23T08:42:40.698Z,49.19
2023-05-23T08:45:12.753Z,50.42
2023-05-23T08:47:49.255Z,50.04
2023-05-23T08:50:22.000Z,49.80
2023-05-23T08:52:57.356Z,49.08
2023-05-23T08:55:29.442Z,49.55
2023-05-23T08:58:02.878Z,49.13
2023-05-23T09:00:50.588Z,49.08
2023-05-23T09:03:18.104Z,47.63
2023-05-23T09:06:09.271Z,47.59
2023-05-23T09:08:41.167Z,45.46
2023-05-23T09:11:13.888Z,44.53
2023-05-23T09:13:49.913Z,45.07
2023-05-23T09:16:18.643Z,44.94
2023-05-23T09:18:51.614Z,45.60
2023-05-23T09:21:24.445Z,44.53
2023-05-23T09:23:58.584Z,45.18
2023-05-23T09:26:28.416Z,44.26
2023-05-23T09:29:02.062Z,44.21
2023-05-23T09:31:32.254Z,43.52
2023-05-23T09:34:04.278Z,41.11
2023-05-23T09:36:34.251Z,41.45
2023-05-23T09:39:05.636Z,43.26
2023-05-23T09:41:40.284Z,42.67
2023-05-23T09:44:11.334Z,41.33
2023-05-23T09:46:38.933Z,42.08
2023-05-23T09:49:24.326Z,41.44
2023-05-23T09:52:01.368Z,41.88
2023-05-23T09:54:28.267Z,42.27
2023-05-23T09:56:57.413Z,40.00
2023-05-23T09:59:29.269Z,41.07
2023-05-23T10:02:09.612Z,41.15
2023-05-23T10:04:45.912Z,40.40
2023-05-23T10:07:16.107Z,40.17
2023-05-23T10:09:50.490Z,39.95
2023-05-23T10:12:32.684Z,39.31
2023-05-23T10:15:11.051Z,38.10
2023-05-23T10:17:57.899Z,39.09
2023-05-23T10:20:27.753Z,38.79
2023-05-23T10:23:03.770Z,37.30
2023-05-23T10:25:39.195Z,36.71
2023-05-23T10:28:06.265Z,36.36
2023-05-23T10:30:37.938Z,37.73
2023-05-23T10:33:09.088Z,38.88
2023-05-23T10:35:40.000Z,37.44
2023-05-23T10:38:22.574Z,38.36
2023-05-23T10:40:59.138Z,38.82
2023-05-23T10:43:31.668Z,38.92
2023-05-23T10:46:01.663Z,39.05
2023-05-23T10:48:35.005Z,39.39
2023-05-23T10:51:11.698Z,39.59
2023-05-23T10:53:43.564Z,39.08
2023-05-23T10:56:11.844Z,37.79
2023-05-23T10:58:41.236Z,37.28
2023-05-23T11:01:16.607Z,37.02
2023-05-23T11:03:46.691Z,37.41
2023-05-23T11:06:32.995Z,37.32
2023-05-23T11:09:08.170Z,37.25
2023-05-23T11:11:54.160Z,36.94
2023-05-23T11:14:38.127Z,37.62
2023-05-23T11:17:13.530Z,37.63
2023-05-23T11:19:41.705Z,37.69
2023-05-23T11:22:09.755Z,38.41
2023-05-23T11:24:53.809Z,38.21
2023-05-23T11:27:36.169Z,37.91
2023-05-23T11:30:18.743Z,37.40
2023-05-23T11:32:54.549Z,36.88
2023-05-23T11:35:24.941Z,37.03
2023-05-23T11:37:51.815Z,37.90
2023-05-23T11:40:40.551Z,36.98
2023-05-23T11:43:11.034Z,36.17
2023-05-23T11:45:41.143Z,36.82
2023-05-23T11:48:16.636Z,35.83
2023-05-23T11:50:45.172Z,36.17
2023-05-23T11:53:17.664Z,35.88
2023-05-23T11:55:53.780Z,36.80
2023-05-23T11:58:33.175Z,35.49
2023-05-23T12:01:05.552Z,36.17
2023-05-23T12:03:33.077Z,35.91
2023-05-23T12:06:02.002Z,36.13
2023-05-23T12:12:56.874Z,34.96
2023-05-23T12:15:30.130Z,35.01
2023-05-23T12:18:00.753Z,32.32
2023-05-23T12:20:35.131Z,33.15
2023-05-23T12:23:06.876Z,31.79
2023-05-23T12:25:46.846Z,30.44
2023-05-23T12:28:17.104Z,30.01
2023-05-23T12:30:44.784Z,28.53
2023-05-23T12:33:14.437Z,27.24
2023-05-23T12:35:49.711Z,26.34
2023-05-23T12:38:20.282Z,26.86
2023-05-23T12:40:47.192Z,26.94
2023-05-23T12:43:20.414Z,26.80
2023-05-23T12:45:49.498Z,26.66
2023-05-23T12:48:19.079Z,29.10
2023-05-23T12:50:46.297Z,29.87
2023-05-23T12:53:15.584Z,28.70
2023-05-23T12:55:44.600Z,28.40
2023-05-23T12:58:11.563Z,28.01
2023-05-23T13:00:38.491Z,28.35
2023-05-23T13:03:10.200Z,24.90
2023-05-23T13:05:37.206Z,26.88
2023-05-23T13:08:09.670Z,28.58
2023-05-23T13:10:37.377Z,29.56
2023-05-23T13:13:06.775Z,28.28
2023-05-23T13:15:34.169Z,27.16
2023-05-23T13:18:02.173Z,28.14
2023-05-23T13:20:31.787Z,29.49
2023-05-23T13:22:58.874Z,29.27
2023-05-23T13:25:26.353Z,27.32
2023-05-23T13:27:53.850Z,25.75
2023-05-23T13:30:22.462Z,23.99
2023-05-23T13:32:57.687Z,25.35
2023-05-23T13:35:26.752Z,25.10
2023-05-23T13:37:53.845Z,26.13
2023-05-23T13:40:21.734Z,23.89
2023-05-23T13:42:51.039Z,23.79
2023-05-23T13:45:23.032Z,23.10
2023-05-23T13:47:52.606Z,23.67
2023-05-23T13:50:19.804Z,22.72
2023-05-23T13:52:49.036Z,23.41
2023-05-23T13:55:16.702Z,23.29
2023-05-23T13:57:46.443Z,24.20
2023-05-23T14:00:16.423Z,24.59
2023-05-23T14:02:45.518Z,24.43
2023-05-23T14:05:19.570Z,23.90
2023-05-23T14:07:53.805Z,24.63
2023-05-23T14:10:23.608Z,23.67
2023-05-23T14:12:51.019Z,22.72
2023-05-23T14:15:18.514Z,21.34
2023-05-23T14:17:45.440Z,21.83
2023-05-23T14:20:18.460Z,21.69
2023-05-23T14:22:45.581Z,22.52
2023-05-23T14:25:12.426Z,21.50
2023-05-23T14:27:41.937Z,20.81
2023-05-23T14:30:11.898Z,20.40
2023-05-23T14:32:41.940Z,19.84
2023-05-23T14:35:11.111Z,20.66
2023-05-23T14:37:38.650Z,20.87
2023-05-23T14:40:10.176Z,20.59
2023-05-23T14:42:39.410Z,20.24
2023-05-23T14:45:07.140Z,19.19
2023-05-23T14:47:34.287Z,19.15
2023-05-23T14:50:01.611Z,18.95
2023-05-23T14:52:30.951Z,20.40
2023-05-23T14:55:05.401Z,21.85
2023-05-23T14:57:34.537Z,24.37
2023-05-23T15:00:05.779Z,24.76
2023-05-23T15:02:35.445Z,23.42
2023-05-23T15:05:08.020Z,22.40
2023-05-23T15:07:35.719Z,21.44
2023-05-23T15:10:03.478Z,22.54
2023-05-23T15:12:30.153Z,22.86
2023-05-23T15:15:03.365Z,23.44
2023-05-23T15:17:36.626Z,23.79
2023-05-23T15:20:07.689Z,23.58
2023-05-23T15:22:39.366Z,24.15
2023-05-23T15:25:08.062Z,23.88
2023-05-23T15:27:34.947Z,24.38
2023-05-23T15:30:02.967Z,26.39
2023-05-23T15:32:29.618Z,26.52
2023-05-23T15:34:56.716Z,27.67
2023-05-23T15:37:28.401Z,27.84
2023-05-23T15:39:57.256Z,28.15
2023-05-23T15:42:24.025Z,27.65
2023-05-23T15:44:51.305Z,28.09
2023-05-23T15:47:18.905Z,28.05
2023-05-23T15:49:45.722Z,28.02
2023-05-23T15:52:14.882Z,28.32
2023-05-23T15:54:47.422Z,28.35
2023-05-23T15:57:16.676Z,28.72
2023-05-23T15:59:43.848Z,28.79
2023-05-23T16:02:16.463Z,28.98
2023-05-23T16:04:47.067Z,29.60
2023-05-23T16:07:15.388Z,29.44
2023-05-23T16:09:50.939Z,29.95
2023-05-23T16:12:20.915Z,30.79
2023-05-23T16:14:53.075Z,31.01
2023-05-23T16:17:23.238Z,30.95
2023-05-23T16:19:51.275Z,31.08
2023-05-23T16:22:20.835Z,31.36
2023-05-23T16:24:55.293Z,31.32
2023-05-23T16:27:23.744Z,32.05
2023-05-23T16:29:50.814Z,32.44
2023-05-23T16:32:17.569Z,32.46
2023-05-23T16:34:49.451Z,32.52
2023-05-23T16:37:21.914Z,32.31
2023-05-23T16:39:49.084Z,32.49
2023-05-23T16:42:16.296Z,33.09
2023-05-23T16:44:44.338Z,33.15
2023-05-23T16:47:18.066Z,33.55
2023-05-23T16:49:53.673Z,33.89
2023-05-23T16:52:20.807Z,33.51
2023-05-23T16:54:47.765Z,33.68
2023-05-23T16:57:17.355Z,33.90
2023-05-23T16:59:49.966Z,34.30
2023-05-23T17:02:19.118Z,34.40
2023-05-23T17:04:46.627Z,34.78
2023-05-23T17:07:22.459Z,34.64
2023-05-23T17:09:51.477Z,35.03
2023-05-23T17:12:19.500Z,36.30
2023-05-23T17:14:49.436Z,38.26
2023-05-23T17:17:18.826Z,39.60
2023-05-23T17:19:55.439Z,42.20
2023-05-23T17:22:24.872Z,45.66
2023-05-23T17:24:51.817Z,45.98
2023-05-23T17:27:18.589Z,48.79
2023-05-23T17:29:47.726Z,50.06
2023-05-23T17:32:14.895Z,47.82
2023-05-23T17:34:42.857Z,50.61
2023-05-23T17:37:11.952Z,50.63
2023-05-23T17:39:38.823Z,53.22
2023-05-23T17:42:05.871Z,54.09
2023-05-23T17:44:40.573Z,53.62
2023-05-23T17:47:09.545Z,54.08
2023-05-23T17:49:49.176Z,54.57
2023-05-23T17:52:16.798Z,54.82
2023-05-23T17:54:44.608Z,55.87
2023-05-23T17:57:11.621Z,57.31
2023-05-23T17:59:41.011Z,56.76
2023-05-23T18:02:10.800Z,57.34
2023-05-23T18:04:38.816Z,56.56
2023-05-23T18:07:18.542Z,56.28
2023-05-23T18:09:48.751Z,57.85
2023-05-23T18:12:18.179Z,57.84
2023-05-23T18:14:46.979Z,57.36
2023-05-23T18:17:17.591Z,58.27
2023-05-23T18:19:52.126Z,58.40
2023-05-23T18:22:21.115Z,57.26
2023-05-23T18:24:51.906Z,57.56
2023-05-23T18:27:18.847Z,58.53
2023-05-23T18:29:50.442Z,58.96
2023-05-23T18:32:27.909Z,59.11
2023-05-23T18:34:56.945Z,57.93
2023-05-23T18:37:24.048Z,58.90
2023-05-23T18:39:59.369Z,59.58
2023-05-23T18:42:26.342Z,58.64
2023-05-23T18:44:53.499Z,57.63
2023-05-23T18:47:20.318Z,57.94
2023-05-23T18:49:49.970Z,58.11
2023-05-23T18:52:16.764Z,58.37
2023-05-23T18:54:47.353Z,58.23
2023-05-23T18:57:14.621Z,61.08
2023-05-23T18:59:49.466Z,59.61
2023-05-23T19:02:18.635Z,59.40
2023-05-23T19:04:55.866Z,61.38
2023-05-23T19:07:22.656Z,61.04
2023-05-23T19:09:54.422Z,62.22
2023-05-23T19:12:24.669Z,62.74
2023-05-23T19:14:52.131Z,63.15
2023-05-23T19:17:21.838Z,62.92
2023-05-23T19:19:51.331Z,63.07
2023-05-23T19:22:20.480Z,63.02
2023-05-23T19:24:49.950Z,62.83
2023-05-23T19:27:16.965Z,62.10
2023-05-23T19:29:48.443Z,63.17
2023-05-23T19:32:15.276Z,62.51
2023-05-23T19:34:44.986Z,62.25
2023-05-23T19:37:14.544Z,61.21
2023-05-23T19:39:46.003Z,61.70
2023-05-23T19:42:18.239Z,62.10
2023-05-23T19:44:48.277Z,62.04
2023-05-23T19:47:17.908Z,62.07
2023-05-23T19:49:46.837Z,62.62
2023-05-23T19:52:14.294Z,62.59
2023-05-23T19:54:46.700Z,62.50
2023-05-23T19:57:16.400Z,62.59
2023-05-23T19:59:43.184Z,62.73
2023-05-23T20:02:10.224Z,63.57
2023-05-23T20:04:41.810Z,63.17
2023-05-23T20:07:14.078Z,63.33
2023-05-23T20:09:41.545Z,63.57
2023-05-23T20:12:10.812Z,64.15
2023-05-23T20:14:37.702Z,63.76
2023-05-23T20:17:08.376Z,63.54
2023-05-23T20:19:35.333Z,63.66
2023-05-23T20:22:02.497Z,63.92
2023-05-23T20:24:33.841Z,64.52
2023-05-23T20:27:01.157Z,64.17
2023-05-23T20:29:27.946Z,64.20
2023-05-23T20:31:57.146Z,64.13
2023-05-23T20:34:23.950Z,64.29
2023-05-23T20:36:50.925Z,64.77
2023-05-23T20:39:20.075Z,65.02
2023-05-23T20:41:53.826Z,65.74
2023-05-23T20:44:20.791Z,65.96
2023-05-23T20:46:50.081Z,66.23
2023-05-23T20:49:19.283Z,67.03
2023-05-23T20:51:46.249Z,67.76
2023-05-23T20:54:16.044Z,67.20
2023-05-23T20:56:42.947Z,67.16
2023-05-23T20:59:12.384Z,67.69
2023-05-23T21:01:40.274Z,67.61
2023-05-23T21:04:09.662Z,68.51
2023-05-23T21:06:37.075Z,68.41
2023-05-23T21:09:06.449Z,68.79
2023-05-23T21:11:33.154Z,69.13
2023-05-23T21:14:02.903Z,69.37
2023-05-23T21:16:31.884Z,69.17
2023-05-23T21:19:00.375Z,68.70
2023-05-23T21:21:27.251Z,68.92
2023-05-23T21:23:54.020Z,68.97
2023-05-23T21:26:21.088Z,68.42
2023-05-23T21:28:48.705Z,68.58
2023-05-23T21:31:18.350Z,68.73
2023-05-23T21:33:49.177Z,68.99
2023-05-23T21:36:15.959Z,69.53
2023-05-23T21:38:45.083Z,70.06
2023-05-23T21:41:11.958Z,69.96
2023-05-23T21:43:38.885Z,70.59
2023-05-23T21:46:05.707Z,70.02
2023-05-23T21:48:32.476Z,70.15
2023-05-23T21:50:59.409Z,69.75
2023-05-23T21:53:26.270Z,69.87
2023-05-23T21:55:53.088Z,69.30
2023-05-23T21:58:19.892Z,69.33
2023-05-23T22:00:49.044Z,69.47
2023-05-23T22:03:16.057Z,69.71
2023-05-23T22:05:42.905Z,69.48
2023-05-23T22:08:09.955Z,69.63
2023-05-23T22:10:40.534Z,69.00
2023-05-23T22:13:10.051Z,68.84
2023-05-23T22:15:39.129Z,69.73
2023-05-23T22:18:08.186Z,70.06
2023-05-23T22:20:38.857Z,69.04
2023-05-23T22:23:09.809Z,68.97
2023-05-23T22:25:38.341Z,69.24
2023-05-23T22:28:05.120Z,69.04
2023-05-23T22:30:34.300Z,69.71
2023-05-23T22:33:12.895Z,69.37
2023-05-23T22:35:40.970Z,69.79
2023-05-23T22:38:09.976Z,69.82
2023-05-23T22:40:39.974Z,70.27
2023-05-23T22:43:07.708Z,70.28
2023-05-23T22:45:43.357Z,70.13
2023-05-23T22:48:11.430Z,70.68
2023-05-23T22:50:41.840Z,70.75
2023-05-23T22:53:09.063Z,70.99
2023-05-23T22:55:39.197Z,70.57
2023-05-23T22:58:09.013Z,71.99
2023-05-23T23:00:38.357Z,71.35
2023-05-23T23:03:10.054Z,71.68
2023-05-23T23:05:37.073Z,71.80
2023-05-23T23:08:04.076Z,71.76
2023-05-23T23:10:33.410Z,72.07
2023-05-23T23:13:00.180Z,73.20
2023-05-23T23:15:27.320Z,73.66
2023-05-23T23:17:56.801Z,74.13
2023-05-23T23:20:23.669Z,74.87
2023-05-23T23:22:50.677Z,75.15
2023-05-23T23:25:18.879Z,74.29
2023-05-23T23:27:45.678Z,74.73
2023-05-23T23:30:12.872Z,74.71
2023-05-23T23:32:39.690Z,74.05
2023-05-23T23:35:09.292Z,73.89
2023-05-23T23:37:36.360Z,73.67
2023-05-23T23:40:05.299Z,72.84
2023-05-23T23:42:34.491Z,73.11
2023-05-23T23:45:01.702Z,72.97
2023-05-23T23:47:28.601Z,72.06
2023-05-23T23:49:59.907Z,71.81
2023-05-23T23:52:30.799Z,72.15
2023-05-23T23:55:00.488Z,71.81
2023-05-23T23:57:27.377Z,71.92
2023-05-23T23:59:54.307Z,72.34
